Terminal Aerodrome Forecast
Issued by NWS Charleston, WV

Current Version | Previous Version | Graphics & Text | Print | Product List | Glossary Off
Versions: 1 2 3 4 5 6 7 8 9 10 11 12 13 14 15 16 17 18 19 20 21 22 23 24 25 26 27 28 29

000
FTUS41 KRLX 191937 AAC
TAFCRW
TAF AMD
KCRW 191937Z 1920/2018 28006KT P6SM SCT045 BKN100
     FM200000 VRB02KT P6SM BKN100
     FM200600 00000KT 5SM BR FEW001 BKN040
     FM201300 00000KT P6SM BKN040=

USA.gov is the U.S. government's official web portal to all federal, state and local government web resources and services.